sensor_id;sensor_type;location;lat;lon;timestamp;temperature;humidity
8664;DHT22;4369;47.842;13.096;2023-04-08T00:00:14;6.90;99.90
8664;DHT22;4369;47.842;13.096;2023-04-08T00:02:41;6.90;99.90
8664;DHT22;4369;47.842;13.096;2023-04-08T00:05:08;6.90;99.90
8664;DHT22;4369;47.842;13.096;2023-04-08T00:07:36;6.80;99.90
8664;DHT22;4369;47.842;13.096;2023-04-08T00:10:04;6.80;99.90
8664;DHT22;4369;47.842;13.096;2023-04-08T00:12:32;6.80;99.90
8664;DHT22;4369;47.842;13.096;2023-04-08T00:14:59;6.80;99.90
8664;DHT22;4369;47.842;13.096;2023-04-08T00:17:26;6.70;99.90
8664;DHT22;4369;47.842;13.096;2023-04-08T00:19:53;6.50;99.90
8664;DHT22;4369;47.842;13.096;2023-04-08T00:22:19;6.50;99.90
8664;DHT22;4369;47.842;13.096;2023-04-08T00:24:46;6.60;99.90
8664;DHT22;4369;47.842;13.096;2023-04-08T00:27:13;6.50;99.90
8664;DHT22;4369;47.842;13.096;2023-04-08T00:29:41;6.50;99.90
8664;DHT22;4369;47.842;13.096;2023-04-08T00:32:08;6.50;99.90
8664;DHT22;4369;47.842;13.096;2023-04-08T00:34:35;6.60;99.90
8664;DHT22;4369;47.842;13.096;2023-04-08T00:37:03;6.60;99.90
8664;DHT22;4369;47.842;13.096;2023-04-08T00:39:30;6.80;99.90
8664;DHT22;4369;47.842;13.096;2023-04-08T00:41:56;6.80;99.90
8664;DHT22;4369;47.842;13.096;2023-04-08T00:44:23;6.90;99.90
8664;DHT22;4369;47.842;13.096;2023-04-08T00:46:52;7.00;99.90
8664;DHT22;4369;47.842;13.096;2023-04-08T00:49:19;7.00;99.90
8664;DHT22;4369;47.842;13.096;2023-04-08T00:51:46;7.10;99.90
8664;DHT22;4369;47.842;13.096;2023-04-08T00:54:13;7.10;99.90
8664;DHT22;4369;47.842;13.096;2023-04-08T00:56:39;7.20;99.90
8664;DHT22;4369;47.842;13.096;2023-04-08T00:59:08;7.20;99.90
8664;DHT22;4369;47.842;13.096;2023-04-08T01:01:41;7.30;99.90
8664;DHT22;4369;47.842;13.096;2023-04-08T01:04:16;7.30;99.90
8664;DHT22;4369;47.842;13.096;2023-04-08T01:06:50;7.40;99.90
8664;DHT22;4369;47.842;13.096;2023-04-08T01:09:23;7.40;99.90
8664;DHT22;4369;47.842;13.096;2023-04-08T01:11:51;7.50;99.90
8664;DHT22;4369;47.842;13.096;2023-04-08T01:14:20;7.60;99.90
8664;DHT22;4369;47.842;13.096;2023-04-08T01:16:49;7.60;99.90
8664;DHT22;4369;47.842;13.096;2023-04-08T01:19:23;7.70;99.90
8664;DHT22;4369;47.842;13.096;2023-04-08T01:21:54;7.80;99.90
8664;DHT22;4369;47.842;13.096;2023-04-08T01:24:28;7.80;99.90
8664;DHT22;4369;47.842;13.096;2023-04-08T01:26:57;7.80;99.90
8664;DHT22;4369;47.842;13.096;2023-04-08T01:29:27;7.80;99.90
8664;DHT22;4369;47.842;13.096;2023-04-08T01:31:56;7.80;99.90
8664;DHT22;4369;47.842;13.096;2023-04-08T01:34:24;7.70;99.90
8664;DHT22;4369;47.842;13.096;2023-04-08T01:36:52;7.70;99.90
8664;DHT22;4369;47.842;13.096;2023-04-08T01:39:21;7.70;99.90
8664;DHT22;4369;47.842;13.096;2023-04-08T01:41:49;7.80;99.90
8664;DHT22;4369;47.842;13.096;2023-04-08T01:44:20;7.80;99.90
8664;DHT22;4369;47.842;13.096;2023-04-08T01:46:48;7.70;99.90
8664;DHT22;4369;47.842;13.096;2023-04-08T01:49:16;7.70;99.90
8664;DHT22;4369;47.842;13.096;2023-04-08T01:51:44;7.70;99.90
8664;DHT22;4369;47.842;13.096;2023-04-08T01:54:12;7.80;99.90
8664;DHT22;4369;47.842;13.096;2023-04-08T01:56:40;7.80;99.90
8664;DHT22;4369;47.842;13.096;2023-04-08T01:59:10;7.70;99.90
8664;DHT22;4369;47.842;13.096;2023-04-08T02:01:40;7.70;99.90
8664;DHT22;4369;47.842;13.096;2023-04-08T02:04:08;7.70;99.90
8664;DHT22;4369;47.842;13.096;2023-04-08T02:06:35;7.70;99.90
8664;DHT22;4369;47.842;13.096;2023-04-08T02:09:03;7.70;99.90
8664;DHT22;4369;47.842;13.096;2023-04-08T02:11:30;7.80;99.90
8664;DHT22;4369;47.842;13.096;2023-04-08T02:13:57;7.70;99.90
8664;DHT22;4369;47.842;13.096;2023-04-08T02:16:29;7.60;99.90
8664;DHT22;4369;47.842;13.096;2023-04-08T02:19:04;7.50;99.90
8664;DHT22;4369;47.842;13.096;2023-04-08T02:21:37;7.50;99.90
8664;DHT22;4369;47.842;13.096;2023-04-08T02:24:09;7.60;99.90
8664;DHT22;4369;47.842;13.096;2023-04-08T02:26:39;7.60;99.90
8664;DHT22;4369;47.842;13.096;2023-04-08T02:29:11;7.50;99.90
8664;DHT22;4369;47.842;13.096;2023-04-08T02:31:40;7.40;99.90
8664;DHT22;4369;47.842;13.096;2023-04-08T02:34:10;7.50;99.90
8664;DHT22;4369;47.842;13.096;2023-04-08T02:36:37;7.60;99.90
8664;DHT22;4369;47.842;13.096;2023-04-08T02:39:05;7.50;99.90
8664;DHT22;4369;47.842;13.096;2023-04-08T02:41:32;7.50;99.90
8664;DHT22;4369;47.842;13.096;2023-04-08T02:43:59;7.50;99.90
8664;DHT22;4369;47.842;13.096;2023-04-08T02:46:26;7.50;99.90
8664;DHT22;4369;47.842;13.096;2023-04-08T02:48:53;7.50;99.90
8664;DHT22;4369;47.842;13.096;2023-04-08T02:51:21;7.50;99.90
8664;DHT22;4369;47.842;13.096;2023-04-08T02:53:48;7.50;99.90
8664;DHT22;4369;47.842;13.096;2023-04-08T02:56:15;7.50;99.90
8664;DHT22;4369;47.842;13.096;2023-04-08T02:58:41;7.40;99.90
8664;DHT22;4369;47.842;13.096;2023-04-08T03:01:08;7.40;99.90
8664;DHT22;4369;47.842;13.096;2023-04-08T03:03:35;7.40;99.90
8664;DHT22;4369;47.842;13.096;2023-04-08T03:06:02;7.40;99.90
8664;DHT22;4369;47.842;13.096;2023-04-08T03:08:31;7.40;99.90
8664;DHT22;4369;47.842;13.096;2023-04-08T03:10:58;7.40;99.90
8664;DHT22;4369;47.842;13.096;2023-04-08T03:13:25;7.40;99.90
8664;DHT22;4369;47.842;13.096;2023-04-08T03:15:51;7.40;99.90
8664;DHT22;4369;47.842;13.096;2023-04-08T03:18:18;7.40;99.90
8664;DHT22;4369;47.842;13.096;2023-04-08T03:20:45;7.40;99.90
8664;DHT22;4369;47.842;13.096;2023-04-08T03:23:12;7.40;99.90
8664;DHT22;4369;47.842;13.096;2023-04-08T03:25:40;7.40;99.90
8664;DHT22;4369;47.842;13.096;2023-04-08T03:28:07;7.40;99.90
8664;DHT22;4369;47.842;13.096;2023-04-08T03:30:34;7.40;99.90
8664;DHT22;4369;47.842;13.096;2023-04-08T03:33:01;7.40;99.90
8664;DHT22;4369;47.842;13.096;2023-04-08T03:35:29;7.40;99.90
8664;DHT22;4369;47.842;13.096;2023-04-08T03:37:57;7.40;99.90
8664;DHT22;4369;47.842;13.096;2023-04-08T03:40:24;7.40;99.90
8664;DHT22;4369;47.842;13.096;2023-04-08T03:42:54;7.40;99.90
8664;DHT22;4369;47.842;13.096;2023-04-08T03:45:21;7.30;99.90
8664;DHT22;4369;47.842;13.096;2023-04-08T03:47:48;7.20;99.90
8664;DHT22;4369;47.842;13.096;2023-04-08T03:50:14;7.10;99.90
8664;DHT22;4369;47.842;13.096;2023-04-08T03:52:41;7.10;99.90
8664;DHT22;4369;47.842;13.096;2023-04-08T03:55:08;7.00;99.90
8664;DHT22;4369;47.842;13.096;2023-04-08T03:57:35;7.00;99.90
8664;DHT22;4369;47.842;13.096;2023-04-08T04:00:04;7.00;99.90
8664;DHT22;4369;47.842;13.096;2023-04-08T04:02:31;7.00;99.90
8664;DHT22;4369;47.842;13.096;2023-04-08T04:04:58;7.00;99.90
8664;DHT22;4369;47.842;13.096;2023-04-08T04:07:25;7.00;99.90
8664;DHT22;4369;47.842;13.096;2023-04-08T04:09:52;7.10;99.90
8664;DHT22;4369;47.842;13.096;2023-04-08T04:12:21;7.10;99.90
8664;DHT22;4369;47.842;13.096;2023-04-08T04:14:48;7.20;99.90
8664;DHT22;4369;47.842;13.096;2023-04-08T04:17:16;7.10;99.90
8664;DHT22;4369;47.842;13.096;2023-04-08T04:19:43;7.10;99.90
8664;DHT22;4369;47.842;13.096;2023-04-08T04:22:10;7.10;99.90
8664;DHT22;4369;47.842;13.096;2023-04-08T04:24:37;7.10;99.90
8664;DHT22;4369;47.842;13.096;2023-04-08T04:27:04;7.10;99.90
8664;DHT22;4369;47.842;13.096;2023-04-08T04:29:31;7.10;99.90
8664;DHT22;4369;47.842;13.096;2023-04-08T04:31:57;7.20;99.90
8664;DHT22;4369;47.842;13.096;2023-04-08T04:34:26;7.30;99.90
8664;DHT22;4369;47.842;13.096;2023-04-08T04:36:52;7.30;99.90
8664;DHT22;4369;47.842;13.096;2023-04-08T04:39:20;7.20;99.90
8664;DHT22;4369;47.842;13.096;2023-04-08T04:41:47;7.20;99.90
8664;DHT22;4369;47.842;13.096;2023-04-08T04:44:14;7.20;99.90
8664;DHT22;4369;47.842;13.096;2023-04-08T04:46:41;7.20;99.90
8664;DHT22;4369;47.842;13.096;2023-04-08T04:49:08;7.20;99.90
8664;DHT22;4369;47.842;13.096;2023-04-08T04:51:36;7.20;99.90
8664;DHT22;4369;47.842;13.096;2023-04-08T04:54:03;7.20;99.90
8664;DHT22;4369;47.842;13.096;2023-04-08T04:56:30;7.20;99.90
8664;DHT22;4369;47.842;13.096;2023-04-08T04:58:57;7.10;99.90
8664;DHT22;4369;47.842;13.096;2023-04-08T05:01:24;7.00;99.90
8664;DHT22;4369;47.842;13.096;2023-04-08T05:03:51;7.10;99.90
8664;DHT22;4369;47.842;13.096;2023-04-08T05:06:18;7.20;99.90
8664;DHT22;4369;47.842;13.096;2023-04-08T05:08:46;7.20;99.90
8664;DHT22;4369;47.842;13.096;2023-04-08T05:11:13;7.20;99.90
8664;DHT22;4369;47.842;13.096;2023-04-08T05:13:42;7.20;99.90
8664;DHT22;4369;47.842;13.096;2023-04-08T05:16:09;7.20;99.90
8664;DHT22;4369;47.842;13.096;2023-04-08T05:18:36;7.20;99.90
8664;DHT22;4369;47.842;13.096;2023-04-08T05:21:03;7.20;99.90
8664;DHT22;4369;47.842;13.096;2023-04-08T05:23:30;7.20;99.90
8664;DHT22;4369;47.842;13.096;2023-04-08T05:25:58;7.10;99.90
8664;DHT22;4369;47.842;13.096;2023-04-08T05:28:25;7.10;99.90
8664;DHT22;4369;47.842;13.096;2023-04-08T05:30:52;7.20;99.90
8664;DHT22;4369;47.842;13.096;2023-04-08T05:33:19;7.30;99.90
8664;DHT22;4369;47.842;13.096;2023-04-08T05:35:46;7.30;99.90
8664;DHT22;4369;47.842;13.096;2023-04-08T05:38:13;7.40;99.90
8664;DHT22;4369;47.842;13.096;2023-04-08T05:40:40;7.40;99.90
8664;DHT22;4369;47.842;13.096;2023-04-08T05:43:08;7.40;99.90
8664;DHT22;4369;47.842;13.096;2023-04-08T05:45:35;7.40;99.90
8664;DHT22;4369;47.842;13.096;2023-04-08T05:48:02;7.40;99.90
8664;DHT22;4369;47.842;13.096;2023-04-08T05:50:29;7.50;99.90
8664;DHT22;4369;47.842;13.096;2023-04-08T05:52:56;7.30;99.90
8664;DHT22;4369;47.842;13.096;2023-04-08T05:55:23;7.30;99.90
8664;DHT22;4369;47.842;13.096;2023-04-08T05:57:50;7.30;99.90
8664;DHT22;4369;47.842;13.096;2023-04-08T06:00:18;7.30;99.90
8664;DHT22;4369;47.842;13.096;2023-04-08T06:02:45;7.40;99.90
8664;DHT22;4369;47.842;13.096;2023-04-08T06:05:12;7.40;99.90
8664;DHT22;4369;47.842;13.096;2023-04-08T06:07:39;7.40;99.90
8664;DHT22;4369;47.842;13.096;2023-04-08T06:10:07;7.30;99.90
8664;DHT22;4369;47.842;13.096;2023-04-08T06:12:35;7.40;99.90
8664;DHT22;4369;47.842;13.096;2023-04-08T06:15:03;7.50;99.90
8664;DHT22;4369;47.842;13.096;2023-04-08T06:17:32;7.50;99.90
8664;DHT22;4369;47.842;13.096;2023-04-08T06:20:01;7.50;99.90
8664;DHT22;4369;47.842;13.096;2023-04-08T06:22:28;7.60;99.90
8664;DHT22;4369;47.842;13.096;2023-04-08T06:24:55;7.60;99.90
8664;DHT22;4369;47.842;13.096;2023-04-08T06:27:22;7.60;99.90
8664;DHT22;4369;47.842;13.096;2023-04-08T06:29:49;7.60;99.90
8664;DHT22;4369;47.842;13.096;2023-04-08T06:32:16;7.60;99.90
8664;DHT22;4369;47.842;13.096;2023-04-08T06:34:45;7.60;99.90
8664;DHT22;4369;47.842;13.096;2023-04-08T06:37:12;7.60;99.90
8664;DHT22;4369;47.842;13.096;2023-04-08T06:39:39;7.70;99.90
8664;DHT22;4369;47.842;13.096;2023-04-08T06:42:06;7.90;99.90
8664;DHT22;4369;47.842;13.096;2023-04-08T06:44:33;7.80;99.90
8664;DHT22;4369;47.842;13.096;2023-04-08T06:46:59;7.90;99.90
8664;DHT22;4369;47.842;13.096;2023-04-08T06:49:26;8.00;99.90
8664;DHT22;4369;47.842;13.096;2023-04-08T06:51:55;8.00;99.90
8664;DHT22;4369;47.842;13.096;2023-04-08T06:54:22;8.10;99.90
8664;DHT22;4369;47.842;13.096;2023-04-08T06:56:49;8.10;99.90
8664;DHT22;4369;47.842;13.096;2023-04-08T06:59:16;8.00;99.90
8664;DHT22;4369;47.842;13.096;2023-04-08T07:01:43;8.10;99.90
8664;DHT22;4369;47.842;13.096;2023-04-08T07:04:10;8.10;99.90
8664;DHT22;4369;47.842;13.096;2023-04-08T07:06:37;8.10;99.90
8664;DHT22;4369;47.842;13.096;2023-04-08T07:09:05;8.20;99.90
8664;DHT22;4369;47.842;13.096;2023-04-08T07:11:32;8.30;99.90
8664;DHT22;4369;47.842;13.096;2023-04-08T07:13:59;8.10;99.90
8664;DHT22;4369;47.842;13.096;2023-04-08T07:16:26;8.10;99.90
8664;DHT22;4369;47.842;13.096;2023-04-08T07:18:53;8.10;99.90
8664;DHT22;4369;47.842;13.096;2023-04-08T07:21:20;7.80;99.90
8664;DHT22;4369;47.842;13.096;2023-04-08T07:23:46;7.90;99.90
8664;DHT22;4369;47.842;13.096;2023-04-08T07:26:15;7.70;99.90
8664;DHT22;4369;47.842;13.096;2023-04-08T07:28:42;7.70;99.90
8664;DHT22;4369;47.842;13.096;2023-04-08T07:31:13;7.70;99.90
8664;DHT22;4369;47.842;13.096;2023-04-08T07:33:40;7.50;99.90
8664;DHT22;4369;47.842;13.096;2023-04-08T07:36:08;7.50;99.90
8664;DHT22;4369;47.842;13.096;2023-04-08T07:38:36;7.50;99.90
8664;DHT22;4369;47.842;13.096;2023-04-08T07:41:02;7.50;99.90
8664;DHT22;4369;47.842;13.096;2023-04-08T07:43:32;7.60;99.90
8664;DHT22;4369;47.842;13.096;2023-04-08T07:46:02;7.60;99.90
8664;DHT22;4369;47.842;13.096;2023-04-08T07:48:29;7.50;99.90
8664;DHT22;4369;47.842;13.096;2023-04-08T07:50:56;7.40;99.90
8664;DHT22;4369;47.842;13.096;2023-04-08T07:53:23;7.40;99.90
8664;DHT22;4369;47.842;13.096;2023-04-08T07:55:51;7.50;99.90
8664;DHT22;4369;47.842;13.096;2023-04-08T07:58:18;7.50;99.90
8664;DHT22;4369;47.842;13.096;2023-04-08T08:00:46;7.50;99.90
8664;DHT22;4369;47.842;13.096;2023-04-08T08:03:13;7.60;99.90
8664;DHT22;4369;47.842;13.096;2023-04-08T08:05:40;7.70;99.90
8664;DHT22;4369;47.842;13.096;2023-04-08T08:08:07;7.80;99.90
8664;DHT22;4369;47.842;13.096;2023-04-08T08:10:36;7.90;99.90
8664;DHT22;4369;47.842;13.096;2023-04-08T08:13:03;7.90;99.90
8664;DHT22;4369;47.842;13.096;2023-04-08T08:15:29;7.90;99.90
8664;DHT22;4369;47.842;13.096;2023-04-08T08:17:58;7.90;99.90
8664;DHT22;4369;47.842;13.096;2023-04-08T08:20:25;7.90;99.90
8664;DHT22;4369;47.842;13.096;2023-04-08T08:22:51;7.80;99.90
8664;DHT22;4369;47.842;13.096;2023-04-08T08:25:19;7.80;99.90
8664;DHT22;4369;47.842;13.096;2023-04-08T08:27:45;7.80;99.90
8664;DHT22;4369;47.842;13.096;2023-04-08T08:30:13;7.70;99.90
8664;DHT22;4369;47.842;13.096;2023-04-08T08:32:40;7.70;99.90
8664;DHT22;4369;47.842;13.096;2023-04-08T08:35:09;7.80;99.90
8664;DHT22;4369;47.842;13.096;2023-04-08T08:37:35;7.60;99.90
8664;DHT22;4369;47.842;13.096;2023-04-08T08:40:03;7.50;99.90
8664;DHT22;4369;47.842;13.096;2023-04-08T08:42:30;7.50;99.90
8664;DHT22;4369;47.842;13.096;2023-04-08T08:44:57;7.50;99.90
8664;DHT22;4369;47.842;13.096;2023-04-08T08:47:27;7.50;99.90
8664;DHT22;4369;47.842;13.096;2023-04-08T08:49:54;7.50;99.90
8664;DHT22;4369;47.842;13.096;2023-04-08T08:52:22;7.60;99.90
8664;DHT22;4369;47.842;13.096;2023-04-08T08:54:56;7.50;99.90
8664;DHT22;4369;47.842;13.096;2023-04-08T08:57:23;7.60;99.90
8664;DHT22;4369;47.842;13.096;2023-04-08T08:59:51;7.60;99.90
8664;DHT22;4369;47.842;13.096;2023-04-08T09:02:25;7.40;99.90
8664;DHT22;4369;47.842;13.096;2023-04-08T09:04:57;7.20;99.90
8664;DHT22;4369;47.842;13.096;2023-04-08T09:07:26;7.20;99.90
8664;DHT22;4369;47.842;13.096;2023-04-08T09:09:55;7.20;99.90
8664;DHT22;4369;47.842;13.096;2023-04-08T09:12:22;7.20;99.90
8664;DHT22;4369;47.842;13.096;2023-04-08T09:14:50;7.20;99.90
8664;DHT22;4369;47.842;13.096;2023-04-08T09:17:30;7.20;99.90
8664;DHT22;4369;47.842;13.096;2023-04-08T09:20:07;7.20;99.90
8664;DHT22;4369;47.842;13.096;2023-04-08T09:22:58;7.20;99.90
8664;DHT22;4369;47.842;13.096;2023-04-08T09:25:26;7.10;99.90
8664;DHT22;4369;47.842;13.096;2023-04-08T09:27:53;7.00;99.90
8664;DHT22;4369;47.842;13.096;2023-04-08T09:30:22;7.00;99.90
8664;DHT22;4369;47.842;13.096;2023-04-08T09:32:50;7.00;99.90
8664;DHT22;4369;47.842;13.096;2023-04-08T09:35:18;7.00;99.90
8664;DHT22;4369;47.842;13.096;2023-04-08T09:37:46;6.80;99.90
8664;DHT22;4369;47.842;13.096;2023-04-08T09:40:14;6.80;99.90
8664;DHT22;4369;47.842;13.096;2023-04-08T09:42:44;6.80;99.90
8664;DHT22;4369;47.842;13.096;2023-04-08T09:45:14;6.70;99.90
8664;DHT22;4369;47.842;13.096;2023-04-08T09:47:49;6.70;99.90
8664;DHT22;4369;47.842;13.096;2023-04-08T09:50:19;6.50;99.90
8664;DHT22;4369;47.842;13.096;2023-04-08T09:52:52;6.30;99.90
8664;DHT22;4369;47.842;13.096;2023-04-08T09:55:27;6.30;99.90
8664;DHT22;4369;47.842;13.096;2023-04-08T09:57:58;6.40;99.90
8664;DHT22;4369;47.842;13.096;2023-04-08T10:00:31;6.40;99.90
8664;DHT22;4369;47.842;13.096;2023-04-08T10:03:04;6.40;99.90
8664;DHT22;4369;47.842;13.096;2023-04-08T10:05:35;6.40;99.90
8664;DHT22;4369;47.842;13.096;2023-04-08T10:08:03;6.40;99.90
8664;DHT22;4369;47.842;13.096;2023-04-08T10:10:33;6.40;99.90
8664;DHT22;4369;47.842;13.096;2023-04-08T10:13:01;6.30;99.90
8664;DHT22;4369;47.842;13.096;2023-04-08T10:15:29;6.30;99.90
8664;DHT22;4369;47.842;13.096;2023-04-08T10:18:31;6.30;99.90
8664;DHT22;4369;47.842;13.096;2023-04-08T10:21:02;6.40;99.90
8664;DHT22;4369;47.842;13.096;2023-04-08T10:23:57;6.40;99.90
8664;DHT22;4369;47.842;13.096;2023-04-08T10:26:31;6.30;99.90
8664;DHT22;4369;47.842;13.096;2023-04-08T10:29:29;6.30;99.90
8664;DHT22;4369;47.842;13.096;2023-04-08T10:31:56;6.30;99.90
8664;DHT22;4369;47.842;13.096;2023-04-08T10:34:24;6.30;99.90
8664;DHT22;4369;47.842;13.096;2023-04-08T10:36:52;6.20;99.90
8664;DHT22;4369;47.842;13.096;2023-04-08T10:39:20;6.20;99.90
8664;DHT22;4369;47.842;13.096;2023-04-08T10:41:49;6.20;99.90
8664;DHT22;4369;47.842;13.096;2023-04-08T10:44:17;6.40;99.90
8664;DHT22;4369;47.842;13.096;2023-04-08T10:46:45;6.30;99.90
8664;DHT22;4369;47.842;13.096;2023-04-08T10:49:12;6.30;99.90
8664;DHT22;4369;47.842;13.096;2023-04-08T10:51:39;6.20;99.90
8664;DHT22;4369;47.842;13.096;2023-04-08T10:54:07;6.30;99.90
8664;DHT22;4369;47.842;13.096;2023-04-08T10:56:35;6.20;99.90
8664;DHT22;4369;47.842;13.096;2023-04-08T10:59:04;6.10;99.90
8664;DHT22;4369;47.842;13.096;2023-04-08T11:01:37;6.10;99.90
8664;DHT22;4369;47.842;13.096;2023-04-08T11:04:12;6.00;99.90
8664;DHT22;4369;47.842;13.096;2023-04-08T11:06:41;5.90;99.90
8664;DHT22;4369;47.842;13.096;2023-04-08T11:09:09;5.90;99.90
8664;DHT22;4369;47.842;13.096;2023-04-08T11:11:35;6.00;99.90
8664;DHT22;4369;47.842;13.096;2023-04-08T11:14:04;6.00;99.90
8664;DHT22;4369;47.842;13.096;2023-04-08T11:16:31;6.10;99.90
8664;DHT22;4369;47.842;13.096;2023-04-08T11:19:01;6.10;99.90
8664;DHT22;4369;47.842;13.096;2023-04-08T11:21:30;6.10;99.90
8664;DHT22;4369;47.842;13.096;2023-04-08T11:23:57;6.10;99.90
8664;DHT22;4369;47.842;13.096;2023-04-08T11:26:24;6.20;99.90
8664;DHT22;4369;47.842;13.096;2023-04-08T11:28:53;6.20;99.90
8664;DHT22;4369;47.842;13.096;2023-04-08T11:31:21;6.20;99.90
8664;DHT22;4369;47.842;13.096;2023-04-08T11:33:51;6.30;99.90
8664;DHT22;4369;47.842;13.096;2023-04-08T11:36:18;6.20;99.90
8664;DHT22;4369;47.842;13.096;2023-04-08T11:38:46;6.00;99.90
8664;DHT22;4369;47.842;13.096;2023-04-08T11:41:13;6.00;99.90
8664;DHT22;4369;47.842;13.096;2023-04-08T11:43:50;6.00;99.90
8664;DHT22;4369;47.842;13.096;2023-04-08T11:46:17;5.90;99.90
8664;DHT22;4369;47.842;13.096;2023-04-08T11:49:01;6.00;99.90
8664;DHT22;4369;47.842;13.096;2023-04-08T11:51:28;6.10;99.90
8664;DHT22;4369;47.842;13.096;2023-04-08T11:53:55;6.00;99.90
8664;DHT22;4369;47.842;13.096;2023-04-08T11:56:23;6.00;99.90
8664;DHT22;4369;47.842;13.096;2023-04-08T11:58:50;6.00;99.90
8664;DHT22;4369;47.842;13.096;2023-04-08T12:01:18;6.10;99.90
8664;DHT22;4369;47.842;13.096;2023-04-08T12:04:00;6.10;99.90
8664;DHT22;4369;47.842;13.096;2023-04-08T12:06:28;6.10;99.90
8664;DHT22;4369;47.842;13.096;2023-04-08T12:08:56;6.20;99.90
8664;DHT22;4369;47.842;13.096;2023-04-08T12:11:23;6.10;99.90
8664;DHT22;4369;47.842;13.096;2023-04-08T12:13:50;6.20;99.90
8664;DHT22;4369;47.842;13.096;2023-04-08T12:16:18;6.20;99.90
8664;DHT22;4369;47.842;13.096;2023-04-08T12:18:46;6.20;99.90
8664;DHT22;4369;47.842;13.096;2023-04-08T12:21:14;6.30;99.90
8664;DHT22;4369;47.842;13.096;2023-04-08T12:23:41;6.40;99.90
8664;DHT22;4369;47.842;13.096;2023-04-08T12:26:08;6.50;99.90
8664;DHT22;4369;47.842;13.096;2023-04-08T12:28:36;6.40;99.90
8664;DHT22;4369;47.842;13.096;2023-04-08T12:31:03;6.30;99.90
8664;DHT22;4369;47.842;13.096;2023-04-08T12:33:30;6.20;99.90
8664;DHT22;4369;47.842;13.096;2023-04-08T12:35:57;6.20;99.90
8664;DHT22;4369;47.842;13.096;2023-04-08T12:38:26;6.20;99.90
8664;DHT22;4369;47.842;13.096;2023-04-08T12:40:53;6.10;99.90
8664;DHT22;4369;47.842;13.096;2023-04-08T12:43:21;6.10;99.90
8664;DHT22;4369;47.842;13.096;2023-04-08T12:45:48;6.10;99.90
8664;DHT22;4369;47.842;13.096;2023-04-08T12:48:15;6.10;99.90
8664;DHT22;4369;47.842;13.096;2023-04-08T12:50:42;6.10;99.90
8664;DHT22;4369;47.842;13.096;2023-04-08T12:53:09;6.10;99.90
8664;DHT22;4369;47.842;13.096;2023-04-08T12:55:37;6.10;99.90
8664;DHT22;4369;47.842;13.096;2023-04-08T12:58:04;6.10;99.90
8664;DHT22;4369;47.842;13.096;2023-04-08T13:00:32;6.10;99.90
8664;DHT22;4369;47.842;13.096;2023-04-08T13:02:58;6.10;99.90
8664;DHT22;4369;47.842;13.096;2023-04-08T13:05:25;6.00;99.90
8664;DHT22;4369;47.842;13.096;2023-04-08T13:07:52;6.00;99.90
8664;DHT22;4369;47.842;13.096;2023-04-08T13:10:19;6.00;99.90
8664;DHT22;4369;47.842;13.096;2023-04-08T13:12:47;6.00;99.90
8664;DHT22;4369;47.842;13.096;2023-04-08T13:15:14;5.80;99.90
8664;DHT22;4369;47.842;13.096;2023-04-08T13:17:41;5.90;99.90
8664;DHT22;4369;47.842;13.096;2023-04-08T13:20:09;5.70;99.90
8664;DHT22;4369;47.842;13.096;2023-04-08T13:22:36;5.80;99.90
8664;DHT22;4369;47.842;13.096;2023-04-08T13:25:03;5.90;99.90
8664;DHT22;4369;47.842;13.096;2023-04-08T13:27:34;5.80;99.90
8664;DHT22;4369;47.842;13.096;2023-04-08T13:30:02;5.80;99.90
8664;DHT22;4369;47.842;13.096;2023-04-08T13:32:29;5.70;99.90
8664;DHT22;4369;47.842;13.096;2023-04-08T13:34:56;5.60;99.90
8664;DHT22;4369;47.842;13.096;2023-04-08T13:37:23;5.60;99.90
8664;DHT22;4369;47.842;13.096;2023-04-08T13:39:50;5.60;99.90
8664;DHT22;4369;47.842;13.096;2023-04-08T13:42:17;5.50;99.90
8664;DHT22;4369;47.842;13.096;2023-04-08T13:44:44;5.60;99.90
8664;DHT22;4369;47.842;13.096;2023-04-08T13:47:13;5.60;99.90
8664;DHT22;4369;47.842;13.096;2023-04-08T13:49:39;5.50;99.90
8664;DHT22;4369;47.842;13.096;2023-04-08T13:52:06;5.50;99.90
8664;DHT22;4369;47.842;13.096;2023-04-08T13:54:34;5.50;99.90
8664;DHT22;4369;47.842;13.096;2023-04-08T13:57:01;5.50;99.90
8664;DHT22;4369;47.842;13.096;2023-04-08T13:59:28;5.50;99.90
8664;DHT22;4369;47.842;13.096;2023-04-08T14:01:55;5.50;99.90
8664;DHT22;4369;47.842;13.096;2023-04-08T14:04:23;5.60;99.90
8664;DHT22;4369;47.842;13.096;2023-04-08T14:06:50;5.70;99.90
8664;DHT22;4369;47.842;13.096;2023-04-08T14:09:18;5.80;99.90
8664;DHT22;4369;47.842;13.096;2023-04-08T14:11:46;5.90;99.90
8664;DHT22;4369;47.842;13.096;2023-04-08T14:14:13;5.90;99.90
8664;DHT22;4369;47.842;13.096;2023-04-08T14:16:40;6.00;99.90
8664;DHT22;4369;47.842;13.096;2023-04-08T14:19:07;5.90;99.90
8664;DHT22;4369;47.842;13.096;2023-04-08T14:21:35;5.90;99.90
8664;DHT22;4369;47.842;13.096;2023-04-08T14:24:03;5.80;99.90
8664;DHT22;4369;47.842;13.096;2023-04-08T14:26:31;5.70;99.90
8664;DHT22;4369;47.842;13.096;2023-04-08T14:29:01;5.60;99.90
8664;DHT22;4369;47.842;13.096;2023-04-08T14:31:28;5.70;99.90
8664;DHT22;4369;47.842;13.096;2023-04-08T14:33:54;5.70;99.90
8664;DHT22;4369;47.842;13.096;2023-04-08T14:36:21;5.70;99.90
8664;DHT22;4369;47.842;13.096;2023-04-08T14:38:50;5.80;99.90
8664;DHT22;4369;47.842;13.096;2023-04-08T14:41:17;5.80;99.90
8664;DHT22;4369;47.842;13.096;2023-04-08T14:43:44;5.80;99.90
8664;DHT22;4369;47.842;13.096;2023-04-08T14:46:11;5.90;99.90
8664;DHT22;4369;47.842;13.096;2023-04-08T14:48:38;5.90;99.90
8664;DHT22;4369;47.842;13.096;2023-04-08T14:51:05;5.90;99.90
8664;DHT22;4369;47.842;13.096;2023-04-08T14:53:32;5.80;99.90
8664;DHT22;4369;47.842;13.096;2023-04-08T14:56:00;5.60;99.90
8664;DHT22;4369;47.842;13.096;2023-04-08T14:58:30;5.60;99.90
8664;DHT22;4369;47.842;13.096;2023-04-08T15:00:57;5.60;99.90
8664;DHT22;4369;47.842;13.096;2023-04-08T15:03:24;5.60;99.90
8664;DHT22;4369;47.842;13.096;2023-04-08T15:05:51;5.50;99.90
8664;DHT22;4369;47.842;13.096;2023-04-08T15:08:20;5.60;99.90
8664;DHT22;4369;47.842;13.096;2023-04-08T15:10:47;5.70;99.90
8664;DHT22;4369;47.842;13.096;2023-04-08T15:13:15;5.70;99.90
8664;DHT22;4369;47.842;13.096;2023-04-08T15:15:42;5.80;99.90
8664;DHT22;4369;47.842;13.096;2023-04-08T15:18:09;5.70;99.90
8664;DHT22;4369;47.842;13.096;2023-04-08T15:20:35;5.80;99.90
8664;DHT22;4369;47.842;13.096;2023-04-08T15:23:02;5.80;99.90
8664;DHT22;4369;47.842;13.096;2023-04-08T15:25:29;5.80;99.90
8664;DHT22;4369;47.842;13.096;2023-04-08T15:27:57;5.90;99.90
8664;DHT22;4369;47.842;13.096;2023-04-08T15:30:25;5.90;99.90
8664;DHT22;4369;47.842;13.096;2023-04-08T15:32:52;6.00;99.90
8664;DHT22;4369;47.842;13.096;2023-04-08T15:35:19;5.90;99.90
8664;DHT22;4369;47.842;13.096;2023-04-08T15:37:46;5.90;99.90
8664;DHT22;4369;47.842;13.096;2023-04-08T15:40:13;5.90;99.90
8664;DHT22;4369;47.842;13.096;2023-04-08T15:42:39;5.80;99.90
8664;DHT22;4369;47.842;13.096;2023-04-08T15:45:08;5.70;99.90
8664;DHT22;4369;47.842;13.096;2023-04-08T15:47:36;5.60;99.90
8664;DHT22;4369;47.842;13.096;2023-04-08T15:50:04;5.40;99.90
8664;DHT22;4369;47.842;13.096;2023-04-08T15:52:31;5.50;99.90
8664;DHT22;4369;47.842;13.096;2023-04-08T15:54:59;5.40;99.90
8664;DHT22;4369;47.842;13.096;2023-04-08T15:57:28;5.40;99.90
8664;DHT22;4369;47.842;13.096;2023-04-08T15:59:56;5.40;99.90
8664;DHT22;4369;47.842;13.096;2023-04-08T16:02:23;5.30;99.90
8664;DHT22;4369;47.842;13.096;2023-04-08T16:04:51;5.30;99.90
8664;DHT22;4369;47.842;13.096;2023-04-08T16:07:18;5.30;99.90